Time;durP1;ratioP1;P1;durP2;ratioP2;P2;SDS_P1;SDS_P2;PMS_P1;PMS_P2;Temp;Humidity;BMP_temperature;BMP_pressure;BME280_temperature;BME280_humidity;BME280_pressure;Samples;Min_cycle;Max_cycle;Signal;HPM_P1;HPM_P2
2023/03/02 00:00:41;;;;;;;16.63;8.48;;;;;;;-0.54;73.13;101781.84;5004042;28;20617;-62
2023/03/02 00:03:07;;;;;;;15.30;7.65;;;;;;;-0.58;73.14;101789.22;4996355;28;20034;-62
2023/03/02 00:05:33;;;;;;;15.15;8.93;;;;;;;-0.62;73.58;101795.81;4992653;28;20100;-63
2023/03/02 00:08:00;;;;;;;16.95;9.05;;;;;;;-0.64;73.33;101799.06;4982395;28;20489;-66
2023/03/02 00:10:27;;;;;;;16.98;7.70;;;;;;;-0.69;73.47;101803.88;4985650;28;20042;-67
2023/03/02 00:12:52;;;;;;;14.93;8.13;;;;;;;-0.72;73.63;101805.41;4989450;28;20569;-66
2023/03/02 00:15:17;;;;;;;10.70;6.03;;;;;;;-0.74;73.99;101809.50;4990322;28;20050;-66
2023/03/02 00:17:43;;;;;;;12.38;7.30;;;;;;;-0.76;73.69;101813.66;4990595;28;20691;-66
2023/03/02 00:20:09;;;;;;;18.48;8.82;;;;;;;-0.78;73.78;101818.66;4996776;28;20116;-64
2023/03/02 00:22:35;;;;;;;16.58;9.02;;;;;;;-0.73;74.29;101826.50;4996981;28;20692;-65
2023/03/02 00:25:02;;;;;;;15.90;7.70;;;;;;;-0.72;74.59;101824.03;4990266;28;20586;-65
2023/03/02 00:27:28;;;;;;;17.30;8.55;;;;;;;-0.70;74.42;101822.47;4992558;28;20042;-65
2023/03/02 00:29:55;;;;;;;16.25;8.82;;;;;;;-0.67;74.39;101821.75;4994187;28;20088;-66
2023/03/02 00:32:20;;;;;;;14.48;7.82;;;;;;;-0.69;74.23;101820.81;4995874;28;20804;-65
2023/03/02 00:34:45;;;;;;;16.13;9.45;;;;;;;-0.69;74.28;101821.66;4993047;28;20037;-65
2023/03/02 00:37:11;;;;;;;12.63;7.13;;;;;;;-0.71;74.40;101823.25;4986263;28;20503;-66
2023/03/02 00:39:36;;;;;;;13.57;7.07;;;;;;;-0.71;73.75;101823.25;4989699;28;20038;-65
2023/03/02 00:42:02;;;;;;;11.98;6.40;;;;;;;-0.68;73.92;101817.44;5004932;28;20099;-65
2023/03/02 00:44:27;;;;;;;18.25;8.65;;;;;;;-0.67;73.89;101816.69;4998043;28;20030;-65
2023/03/02 00:46:52;;;;;;;14.50;7.88;;;;;;;-0.63;73.93;101808.44;5012377;28;20684;-65
2023/03/02 00:49:19;;;;;;;15.50;8.43;;;;;;;-0.47;73.25;101790.66;4993608;28;20050;-65
2023/03/02 00:51:44;;;;;;;20.55;8.00;;;;;;;-0.51;73.48;101787.09;4998262;28;20120;-65
2023/03/02 00:54:09;;;;;;;16.10;8.88;;;;;;;-0.56;72.85;101780.91;4988780;28;20043;-65
2023/03/02 00:56:35;;;;;;;15.65;7.70;;;;;;;-0.56;73.29;101780.03;4992395;28;20558;-65
2023/03/02 00:59:17;;;;;;;17.05;8.32;;;;;;;-0.51;73.21;101778.63;4996324;28;20042;-65
2023/03/02 01:01:42;;;;;;;22.05;8.95;;;;;;;-0.56;72.97;101778.38;4998894;28;20464;-66
2023/03/02 01:04:07;;;;;;;18.08;8.57;;;;;;;-0.64;72.77;101782.19;4994749;28;20836;-65
2023/03/02 01:06:33;;;;;;;14.85;7.00;;;;;;;-0.70;73.20;101788.59;4998848;28;20037;-65
2023/03/02 01:08:58;;;;;;;15.23;8.82;;;;;;;-0.79;73.90;101800.78;5009092;28;20111;-66
2023/03/02 01:11:23;;;;;;;13.45;7.90;;;;;;;-0.88;74.23;101796.09;4987108;28;20460;-66
2023/03/02 01:13:49;;;;;;;15.13;7.95;;;;;;;-0.96;74.60;101803.28;4995352;28;20029;-65
2023/03/02 01:16:15;;;;;;;14.73;6.65;;;;;;;-0.99;74.72;101808.19;4994878;28;20715;-66
2023/03/02 01:18:40;;;;;;;13.38;8.27;;;;;;;-1.03;75.01;101808.84;4994687;28;20034;-66
2023/03/02 01:21:12;;;;;;;16.65;8.00;;;;;;;-1.07;75.05;101804.38;4992960;28;20137;-66
2023/03/02 01:23:38;;;;;;;14.05;7.70;;;;;;;-1.11;75.62;101804.13;4995241;28;20097;-66
2023/03/02 01:26:03;;;;;;;16.42;8.90;;;;;;;-1.14;75.77;101798.91;4996623;28;20152;-66
2023/03/02 01:28:29;;;;;;;16.02;9.10;;;;;;;-1.18;75.81;101795.31;4999783;28;20048;-66
2023/03/02 01:30:54;;;;;;;14.50;8.05;;;;;;;-1.23;76.57;101789.13;4998382;28;20041;-65
2023/03/02 01:33:20;;;;;;;16.65;8.77;;;;;;;-1.29;76.49;101787.91;5011218;28;20512;-65
2023/03/02 01:35:46;;;;;;;19.70;9.65;;;;;;;-1.34;76.81;101784.25;4995455;28;20100;-64
2023/03/02 01:38:12;;;;;;;14.27;8.02;;;;;;;-1.37;76.78;101781.53;4994724;28;20033;-65
2023/03/02 01:40:37;;;;;;;15.63;8.77;;;;;;;-1.39;76.98;101786.50;4993914;28;20388;-65
2023/03/02 01:43:10;;;;;;;18.55;9.45;;;;;;;-1.43;77.08;101773.59;4999744;28;21006;-65
2023/03/02 01:45:54;;;;;;;15.32;9.18;;;;;;;-1.44;77.24;101772.72;4991266;28;20415;-65
2023/03/02 01:48:26;;;;;;;16.80;9.55;;;;;;;-1.47;77.29;101771.66;4997126;28;20034;-66
2023/03/02 01:50:52;;;;;;;15.95;8.60;;;;;;;-1.49;77.90;101768.19;4997765;28;20038;-65
2023/03/02 01:53:18;;;;;;;20.65;9.52;;;;;;;-1.49;77.53;101768.19;4994532;28;20033;-66
2023/03/02 01:55:45;;;;;;;18.13;9.40;;;;;;;-1.51;77.50;101765.56;4993616;28;20038;-66
2023/03/02 01:58:14;;;;;;;15.65;8.57;;;;;;;-1.55;77.82;101761.13;4994149;28;20049;-65
2023/03/02 02:00:40;;;;;;;17.30;8.43;;;;;;;-1.56;77.91;101760.25;4993144;28;20043;-66
2023/03/02 02:03:11;;;;;;;18.83;10.02;;;;;;;-1.58;77.79;101758.41;4994988;28;20624;-66
2023/03/02 02:05:39;;;;;;;20.75;9.88;;;;;;;-1.55;78.54;101758.59;5010075;28;20042;-67
2023/03/02 02:08:06;;;;;;;20.13;9.32;;;;;;;-1.48;79.09;101763.19;5001249;28;20145;-68
2023/03/02 02:10:33;;;;;;;17.65;10.43;;;;;;;-1.48;80.00;101759.78;4999573;28;20030;-68
2023/03/02 02:12:58;;;;;;;19.08;10.13;;;;;;;-1.49;79.95;101763.97;4994250;28;20790;-68
2023/03/02 02:15:24;;;;;;;18.90;9.48;;;;;;;-1.47;80.20;101757.34;4992391;28;20046;-68
2023/03/02 02:17:53;;;;;;;19.95;9.35;;;;;;;-1.43;80.29;101756.69;4996290;28;20038;-68
2023/03/02 02:20:30;;;;;;;18.08;8.60;;;;;;;-1.42;79.92;101752.50;4993742;28;20291;-67
2023/03/02 02:23:12;;;;;;;18.75;9.88;;;;;;;-1.35;79.58;101747.88;4997329;28;20038;-68
2023/03/02 02:26:00;;;;;;;19.08;9.60;;;;;;;-1.31;79.73;101738.78;4986943;28;20042;-68
2023/03/02 02:28:48;;;;;;;15.77;8.98;;;;;;;-1.31;79.57;101739.63;5006982;28;20411;-68
2023/03/02 02:31:16;;;;;;;13.82;8.88;;;;;;;-1.29;79.70;101744.78;4996622;28;20092;-68
2023/03/02 02:33:45;;;;;;;18.88;10.02;;;;;;;-1.28;79.79;101736.41;5010448;28;20096;-68
2023/03/02 02:36:19;;;;;;;18.48;9.30;;;;;;;-1.32;79.68;101735.38;4994893;28;20349;-68
2023/03/02 02:38:48;;;;;;;20.95;9.20;;;;;;;-1.24;79.65;101731.56;4987754;28;20050;-68
2023/03/02 02:41:21;;;;;;;17.33;10.45;;;;;;;-1.21;78.77;101723.25;4988829;28;20096;-68
2023/03/02 02:43:47;;;;;;;16.58;8.18;;;;;;;-1.21;79.26;101724.13;4985898;28;20038;-67
2023/03/02 02:46:12;;;;;;;18.27;9.75;;;;;;;-1.24;79.18;101723.97;4997782;28;20049;-67
2023/03/02 02:48:38;;;;;;;17.20;8.75;;;;;;;-1.24;79.15;101729.03;4994209;28;20980;-68
2023/03/02 02:51:06;;;;;;;14.82;8.10;;;;;;;-1.21;79.12;101723.25;5001624;28;20494;-69
2023/03/02 02:53:41;;;;;;;16.15;8.60;;;;;;;-1.22;78.43;101722.38;5008253;28;20042;-69
2023/03/02 02:56:09;;;;;;;;;;;;;;;-1.27;78.64;101723.78;5003509;28;20033;-69
2023/03/02 02:58:50;;;;;;;13.80;7.60;;;;;;;-1.29;78.84;101733.00;4994260;28;19913;-69
2023/03/02 03:01:24;;;;;;;19.33;9.75;;;;;;;-1.28;78.92;101727.09;4994658;28;20046;-69
2023/03/02 03:03:53;;;;;;;14.23;7.60;;;;;;;-1.27;78.37;101725.44;5000633;28;20049;-69
2023/03/02 03:06:24;;;;;;;13.23;7.65;;;;;;;-1.28;78.40;101733.88;4998572;28;20046;-69
2023/03/02 03:08:55;;;;;;;19.50;9.45;;;;;;;-1.30;78.51;101731.22;4996393;28;20050;-69
2023/03/02 03:11:25;;;;;;;14.90;8.98;;;;;;;-1.31;78.46;101732.00;4991789;28;20041;-69
2023/03/02 03:13:59;;;;;;;16.70;8.85;;;;;;;-1.33;78.86;101735.25;5007161;28;20033;-66
2023/03/02 03:16:27;;;;;;;15.67;7.97;;;;;;;-1.37;78.93;101736.75;5003859;28;21203;-66
2023/03/02 03:18:53;;;;;;;19.73;8.98;;;;;;;-1.44;79.01;101734.69;5002312;28;20038;-65
2023/03/02 03:21:19;;;;;;;21.63;10.35;;;;;;;-1.53;79.49;101735.06;4998185;28;20045;-67
2023/03/02 03:23:44;;;;;;;22.35;10.32;;;;;;;-1.59;79.84;101738.91;4996308;28;20046;-67
2023/03/02 03:26:10;;;;;;;16.40;9.20;;;;;;;-1.63;79.53;101736.97;4992654;28;20041;-66
2023/03/02 03:28:35;;;;;;;19.63;9.63;;;;;;;-1.68;80.21;101730.78;4999598;28;20030;-67
2023/03/02 03:31:01;;;;;;;18.13;8.75;;;;;;;-1.71;79.84;101728.09;5002570;28;20061;-69
2023/03/02 03:33:27;;;;;;;14.48;9.00;;;;;;;-1.75;80.25;101732.09;5005794;28;20052;-69
2023/03/02 03:35:52;;;;;;;22.10;9.68;;;;;;;-1.80;80.58;101738.59;4995715;28;20525;-69
2023/03/02 03:38:18;;;;;;;14.90;9.73;;;;;;;-1.86;80.65;101730.63;5006452;28;20531;-68
2023/03/02 03:40:43;;;;;;;16.42;8.52;;;;;;;-1.90;80.80;101733.78;4997842;28;20113;-69
2023/03/02 03:43:11;;;;;;;19.50;9.15;;;;;;;-1.95;81.26;101727.59;4994064;28;20039;-69
2023/03/02 03:45:36;;;;;;;15.93;8.38;;;;;;;-1.98;81.29;101734.13;4985054;28;20034;-68
2023/03/02 03:48:02;;;;;;;19.55;7.97;;;;;;;-2.00;81.07;101731.53;4994483;28;20504;-69
2023/03/02 03:50:27;;;;;;;14.25;7.07;;;;;;;-2.01;81.39;101737.38;4992190;28;20045;-69
2023/03/02 03:52:52;;;;;;;21.17;9.00;;;;;;;-2.01;81.24;101737.38;4994642;28;20045;-69
2023/03/02 03:55:18;;;;;;;17.58;9.55;;;;;;;-1.96;81.62;101735.06;4990002;28;20145;-69
2023/03/02 03:57:44;;;;;;;19.20;9.05;;;;;;;-1.94;81.72;101731.88;5003184;28;20125;-69
2023/03/02 04:00:13;;;;;;;20.23;10.38;;;;;;;-1.94;81.38;101736.06;4996689;28;20633;-69
2023/03/02 04:02:39;;;;;;;22.05;10.07;;;;;;;-1.95;81.65;101732.66;4998785;28;20058;-69
2023/03/02 04:05:06;;;;;;;22.70;10.00;;;;;;;-1.96;81.75;101735.06;5006309;28;20029;-69
2023/03/02 04:07:33;;;;;;;17.23;8.98;;;;;;;-1.97;81.15;101736.75;4995330;28;20063;-69
2023/03/02 04:10:03;;;;;;;16.40;8.88;;;;;;;-2.01;81.38;101733.94;4993264;28;21273;-69
2023/03/02 04:12:30;;;;;;;25.08;10.80;;;;;;;-2.03;82.04;101736.41;5000315;28;20052;-69
2023/03/02 04:14:55;;;;;;;19.35;9.60;;;;;;;-2.04;81.99;101732.13;5006406;28;20046;-68
2023/03/02 04:17:21;;;;;;;16.73;8.63;;;;;;;-2.08;81.91;101735.25;4992744;28;20825;-69
2023/03/02 04:19:46;;;;;;;18.05;9.15;;;;;;;-2.07;82.15;101742.06;4990665;28;20694;-69
2023/03/02 04:22:14;;;;;;;27.02;9.60;;;;;;;-2.09;81.84;101742.00;4995520;28;20038;-68
2023/03/02 04:24:39;;;;;;;17.35;9.90;;;;;;;-2.12;82.11;101744.38;4998441;28;20080;-69
2023/03/02 04:27:04;;;;;;;19.20;8.88;;;;;;;-2.15;82.13;101734.06;5000529;28;20046;-68
2023/03/02 04:29:31;;;;;;;17.92;9.90;;;;;;;-2.14;82.38;101750.09;5001963;28;20158;-69
2023/03/02 04:31:56;;;;;;;16.13;9.55;;;;;;;-2.15;82.51;101740.78;4997388;28;20766;-69
2023/03/02 04:34:24;;;;;;;17.67;9.52;;;;;;;-2.14;82.57;101745.03;4999607;28;20045;-68
2023/03/02 04:36:50;;;;;;;18.63;9.48;;;;;;;-2.11;82.61;101740.16;5002054;28;20048;-68
2023/03/02 04:39:17;;;;;;;16.25;9.10;;;;;;;-2.12;82.24;101734.22;4999267;28;20049;-68
2023/03/02 04:41:43;;;;;;;25.00;9.73;;;;;;;-2.14;82.47;101735.78;5009047;28;20535;-68
2023/03/02 04:44:08;;;;;;;18.35;9.07;;;;;;;-2.17;82.24;101729.66;4987312;28;20038;-68
2023/03/02 04:46:34;;;;;;;16.15;9.23;;;;;;;-2.22;82.52;101731.94;4999131;28;20108;-68
2023/03/02 04:48:59;;;;;;;18.75;8.77;;;;;;;-2.26;82.52;101736.72;4994495;28;20111;-68
2023/03/02 04:51:28;;;;;;;19.25;10.18;;;;;;;-2.28;82.83;101730.72;4999136;28;20104;-68
2023/03/02 04:53:57;;;;;;;19.80;8.55;;;;;;;-2.31;83.34;101730.53;4996595;28;20049;-68
2023/03/02 04:56:23;;;;;;;22.10;10.38;;;;;;;-2.33;83.09;101730.47;4995731;28;20072;-68
2023/03/02 04:58:48;;;;;;;19.88;9.52;;;;;;;-2.40;83.40;101727.47;5006294;28;20521;-68
2023/03/02 05:01:15;;;;;;;15.18;8.18;;;;;;;-2.44;83.38;101728.94;5004079;28;20042;-68
2023/03/02 05:03:41;;;;;;;19.88;10.18;;;;;;;-2.47;83.92;101723.69;4996065;28;20145;-68
2023/03/02 05:06:07;;;;;;;23.27;10.23;;;;;;;-2.45;84.02;101726.31;4996791;28;20137;-68
2023/03/02 05:08:32;;;;;;;18.63;9.30;;;;;;;-2.41;83.74;101718.13;5001921;28;20518;-68
2023/03/02 05:10:58;;;;;;;15.88;8.63;;;;;;;-2.33;83.85;101721.97;4989349;28;20271;-68
2023/03/02 05:13:24;;;;;;;16.15;9.02;;;;;;;-2.26;83.94;101716.47;5000693;28;20151;-68
2023/03/02 05:15:50;;;;;;;15.10;8.18;;;;;;;-2.21;83.78;101723.56;4997430;28;20809;-68
2023/03/02 05:18:16;;;;;;;18.08;8.75;;;;;;;-2.19;83.51;101719.47;5001167;28;20061;-68
2023/03/02 05:20:42;;;;;;;16.50;8.80;;;;;;;-2.19;83.31;101722.00;4998369;28;20045;-68
2023/03/02 05:23:09;;;;;;;17.45;7.50;;;;;;;-2.21;83.23;101721.03;5001103;28;20057;-70
2023/03/02 05:25:37;;;;;;;19.90;9.57;;;;;;;-2.24;83.09;101720.84;4993527;28;20095;-63
2023/03/02 05:28:03;;;;;;;16.35;8.70;;;;;;;-2.22;83.39;101720.94;4999143;28;20049;-63
2023/03/02 05:30:31;;;;;;;22.20;9.90;;;;;;;-2.22;83.24;101726.00;4998974;28;20042;-63
2023/03/02 05:32:57;;;;;;;16.65;8.65;;;;;;;-2.21;83.45;101727.75;4984675;28;20045;-63
2023/03/02 05:35:22;;;;;;;21.33;9.48;;;;;;;-2.23;83.04;101731.84;4997408;28;20042;-67
2023/03/02 05:37:48;;;;;;;18.73;9.30;;;;;;;-2.25;83.07;101728.34;4993015;28;20050;-68
2023/03/02 05:40:17;;;;;;;17.25;9.98;;;;;;;-2.25;83.38;101736.81;4999233;28;20156;-68
2023/03/02 05:42:43;;;;;;;21.58;9.85;;;;;;;-2.25;83.38;101741.00;4999277;28;20041;-68
2023/03/02 05:45:20;;;;;;;25.65;9.45;;;;;;;-2.22;83.73;101737.00;4993518;28;20164;-67
2023/03/02 05:47:46;;;;;;;21.45;10.18;;;;;;;-2.23;83.44;101747.03;4986555;28;20053;-68
2023/03/02 05:50:12;;;;;;;23.52;9.20;;;;;;;-2.26;82.98;101744.31;4993238;28;20034;-68
2023/03/02 05:52:37;;;;;;;22.70;9.40;;;;;;;-2.28;83.39;101753.50;4991029;28;20034;-68
2023/03/02 05:55:03;;;;;;;19.42;8.80;;;;;;;-2.34;83.36;101751.47;4988227;28;20065;-68
2023/03/02 05:57:28;;;;;;;21.75;10.13;;;;;;;-2.38;83.49;101756.28;4996730;28;20045;-68
2023/03/02 05:59:53;;;;;;;22.45;9.68;;;;;;;-2.42;83.41;101754.34;4995072;28;20129;-68
2023/03/02 06:02:19;;;;;;;19.02;9.35;;;;;;;-2.45;83.43;101751.63;4997935;28;20038;-63
2023/03/02 06:04:44;;;;;;;20.30;9.30;;;;;;;-2.48;83.53;101752.34;5007380;28;20026;-63
2023/03/02 06:07:10;;;;;;;20.50;9.32;;;;;;;-2.48;83.59;101748.91;4999675;28;20057;-63
2023/03/02 06:09:37;;;;;;;18.63;10.30;;;;;;;-2.50;83.85;101747.97;4995940;28;20042;-63
2023/03/02 06:12:03;;;;;;;22.48;10.00;;;;;;;-2.50;84.13;101751.34;4992868;28;20141;-63
2023/03/02 06:14:28;;;;;;;23.92;9.93;;;;;;;-2.49;83.90;101753.09;4995124;28;20040;-63
2023/03/02 06:16:54;;;;;;;16.83;9.35;;;;;;;-2.43;84.75;101761.06;4992301;28;20363;-63
2023/03/02 06:19:19;;;;;;;19.42;10.27;;;;;;;-2.37;84.45;101752.94;4991030;28;20069;-63
2023/03/02 06:21:44;;;;;;;16.85;9.13;;;;;;;-2.33;84.39;101752.38;4994629;28;20070;-63
2023/03/02 06:24:10;;;;;;;17.13;9.30;;;;;;;-2.31;84.39;101759.25;5000578;28;20148;-63
2023/03/02 06:26:35;;;;;;;15.57;8.70;;;;;;;-2.31;84.26;101754.19;5000613;28;20522;-63
2023/03/02 06:29:00;;;;;;;19.92;9.68;;;;;;;-2.26;84.82;101759.50;5001589;28;20134;-63
2023/03/02 06:31:26;;;;;;;22.30;10.43;;;;;;;-2.23;84.48;101760.56;4999310;28;20181;-63
2023/03/02 06:33:51;;;;;;;15.68;9.02;;;;;;;-2.20;84.15;101759.88;4995869;28;20045;-63
2023/03/02 06:36:17;;;;;;;18.98;10.13;;;;;;;-2.16;83.96;101756.75;4991909;28;20478;-64
2023/03/02 06:38:42;;;;;;;16.20;8.90;;;;;;;-2.13;84.23;101756.91;4994281;28;20066;-63
2023/03/02 06:41:08;;;;;;;19.75;9.80;;;;;;;-2.10;84.08;101759.63;4994652;28;20042;-63
2023/03/02 06:43:33;;;;;;;19.02;9.68;;;;;;;-2.05;84.09;101753.16;4992138;28;20065;-63
2023/03/02 06:45:59;;;;;;;19.40;9.00;;;;;;;-2.00;83.77;101759.38;4989406;28;20061;-63
2023/03/02 06:48:25;;;;;;;22.35;10.20;;;;;;;-1.96;83.65;101756.22;4993788;28;20570;-63
2023/03/02 06:50:51;;;;;;;20.73;10.18;;;;;;;-1.89;83.96;101752.38;4992042;28;20061;-63
2023/03/02 06:53:19;;;;;;;18.02;9.50;;;;;;;-1.85;84.01;101762.81;4991693;28;20141;-63
2023/03/02 06:55:46;;;;;;;20.50;10.07;;;;;;;-1.81;83.48;101764.69;4999436;28;21094;-64
2023/03/02 06:58:12;;;;;;;21.85;10.82;;;;;;;-1.75;84.15;101764.16;4994649;28;20085;-68
2023/03/02 07:00:38;;;;;;;17.58;9.70;;;;;;;-1.69;83.45;101760.31;4996363;28;20048;-68
2023/03/02 07:03:03;;;;;;;24.65;12.82;;;;;;;-1.61;83.42;101764.16;4999245;28;20034;-69
2023/03/02 07:05:31;;;;;;;21.33;11.07;;;;;;;-1.53;82.85;101760.41;4996436;28;20764;-69
2023/03/02 07:07:58;;;;;;;21.55;11.25;;;;;;;-1.48;82.74;101759.78;5006869;28;20120;-63
2023/03/02 07:10:23;;;;;;;17.52;9.82;;;;;;;-1.41;82.80;101764.41;4993073;28;20491;-64
2023/03/02 07:12:49;;;;;;;28.98;10.65;;;;;;;-1.33;83.34;101765.69;4990792;28;20038;-63
2023/03/02 07:15:15;;;;;;;14.60;9.63;;;;;;;-1.26;83.03;101763.59;4989716;28;20757;-63
2023/03/02 07:17:42;;;;;;;19.00;10.98;;;;;;;-1.16;83.05;101770.00;4983918;28;20419;-64
2023/03/02 07:20:10;;;;;;;23.63;11.68;;;;;;;-1.06;82.44;101767.19;4992361;28;20038;-63
2023/03/02 07:22:36;;;;;;;24.92;13.50;;;;;;;-0.98;82.60;101761.75;4988618;28;20144;-64
2023/03/02 07:25:01;;;;;;;25.20;12.73;;;;;;;-0.88;82.46;101757.16;4989114;28;21801;-64
2023/03/02 07:27:26;;;;;;;23.23;10.88;;;;;;;-0.80;82.09;101755.88;4997583;28;20465;-69
2023/03/02 07:29:52;;;;;;;27.42;13.10;;;;;;;-0.74;81.92;101757.09;4993026;28;20093;-70
2023/03/02 07:32:17;;;;;;;28.98;12.30;;;;;;;-0.66;81.91;101757.50;4999135;28;20109;-69
2023/03/02 07:34:43;;;;;;;31.00;12.35;;;;;;;-0.58;81.36;101756.22;4999058;28;20064;-69
2023/03/02 07:37:08;;;;;;;26.73;12.82;;;;;;;-0.53;81.15;101752.25;4994901;28;22477;-70
2023/03/02 07:39:34;;;;;;;26.15;12.00;;;;;;;-0.47;80.73;101748.38;4994344;28;20042;-70
2023/03/02 07:42:00;;;;;;;19.85;10.73;;;;;;;-0.40;80.16;101747.91;4992556;28;20053;-69
2023/03/02 07:44:26;;;;;;;25.67;11.20;;;;;;;-0.32;79.95;101745.72;4993041;28;20034;-70
2023/03/02 07:46:51;;;;;;;23.23;10.75;;;;;;;-0.23;79.80;101737.69;4991199;28;20630;-69
2023/03/02 07:49:17;;;;;;;26.85;11.45;;;;;;;-0.17;79.26;101741.44;5007503;28;20045;-70
2023/03/02 07:51:42;;;;;;;24.33;10.75;;;;;;;-0.10;79.40;101735.88;5004341;28;20033;-70
2023/03/02 07:54:08;;;;;;;22.65;11.07;;;;;;;-0.04;79.10;101736.16;4997649;28;20041;-69
2023/03/02 07:56:34;;;;;;;21.48;12.02;;;;;;;0.03;78.47;101742.41;4996000;28;20558;-70
2023/03/02 07:58:59;;;;;;;23.45;10.30;;;;;;;0.10;78.28;101734.28;5003097;28;20021;-70
2023/03/02 08:01:24;;;;;;;23.95;11.43;;;;;;;0.20;77.79;101735.63;4993403;28;20070;-69
2023/03/02 08:03:50;;;;;;;18.50;9.95;;;;;;;0.27;77.88;101725.81;4995874;28;20107;-69
2023/03/02 08:06:15;;;;;;;22.50;10.88;;;;;;;0.37;76.83;101728.00;4988162;28;20057;-70
2023/03/02 08:08:41;;;;;;;20.17;12.00;;;;;;;0.47;76.45;101714.06;4995567;28;20042;-71
2023/03/02 08:11:12;;;;;;;23.63;11.23;;;;;;;0.56;75.70;101701.75;4998044;28;20042;-69
2023/03/02 08:13:37;;;;;;;21.15;10.23;;;;;;;0.65;75.20;101697.97;4999874;28;20784;-69
2023/03/02 08:16:06;;;;;;;21.90;11.00;;;;;;;0.73;75.13;101698.31;4995956;28;20045;-69
2023/03/02 08:18:32;;;;;;;24.23;10.45;;;;;;;0.83;73.98;101681.78;4996188;28;20046;-69
2023/03/02 08:20:58;;;;;;;21.77;10.13;;;;;;;0.90;73.49;101671.09;5000505;28;20053;-70
2023/03/02 08:23:25;;;;;;;22.35;10.40;;;;;;;1.01;72.27;101637.66;4996889;28;20038;-69
2023/03/02 08:25:52;;;;;;;22.77;11.43;;;;;;;1.08;72.27;101642.22;4997441;28;20052;-69
2023/03/02 08:28:17;;;;;;;21.75;10.68;;;;;;;1.16;71.88;101647.63;4997133;28;20107;-71
2023/03/02 08:30:43;;;;;;;20.00;11.60;;;;;;;1.23;73.03;101670.91;4998037;28;20038;-71
2023/03/02 08:33:08;;;;;;;23.77;12.02;;;;;;;1.32;73.18;101679.72;4998119;28;20049;-72
2023/03/02 08:35:34;;;;;;;26.23;12.13;;;;;;;1.40;73.20;101676.72;4994519;28;20254;-73
2023/03/02 08:37:59;;;;;;;26.55;11.63;;;;;;;1.50;71.00;101634.66;5004135;28;20034;-73
2023/03/02 08:40:25;;;;;;;25.02;10.32;;;;;;;1.57;69.89;101618.81;4991028;28;20038;-71
2023/03/02 08:42:55;;;;;;;21.05;12.27;;;;;;;1.70;69.52;101616.84;4988760;28;20038;-72
2023/03/02 08:45:23;;;;;;;21.23;10.75;;;;;;;1.75;69.44;101627.22;4996638;28;20045;-72
2023/03/02 08:47:52;;;;;;;22.15;10.63;;;;;;;1.78;69.54;101633.31;4989186;28;20141;-73
2023/03/02 08:50:17;;;;;;;18.55;10.07;;;;;;;1.77;70.81;101658.75;4990017;28;20034;-72
2023/03/02 08:52:43;;;;;;;17.80;10.07;;;;;;;1.81;69.64;101628.34;4998507;28;20051;-71
2023/03/02 08:55:09;;;;;;;20.83;9.80;;;;;;;1.86;68.47;101603.91;5002451;28;20049;-71
2023/03/02 08:57:34;;;;;;;19.30;9.55;;;;;;;1.90;68.03;101599.78;4996083;28;20050;-71
2023/03/02 08:59:59;;;;;;;18.25;9.32;;;;;;;1.92;68.22;101600.75;5000392;28;20050;-71
2023/03/02 09:02:25;;;;;;;19.50;9.90;;;;;;;1.99;67.80;101591.63;4996491;28;20120;-71
2023/03/02 09:04:50;;;;;;;17.75;9.93;;;;;;;2.07;68.07;101601.34;4994732;28;20034;-71
2023/03/02 09:07:16;;;;;;;19.85;10.43;;;;;;;2.12;68.52;101596.41;4994805;28;20042;-72
2023/03/02 09:09:42;;;;;;;18.75;9.90;;;;;;;2.16;68.25;101603.38;4990663;28;20084;-67
2023/03/02 09:12:07;;;;;;;16.38;9.07;;;;;;;2.22;68.93;101604.47;4996536;28;20043;-66
2023/03/02 09:14:33;;;;;;;18.80;9.98;;;;;;;2.31;67.64;101586.13;5003128;28;20049;-66
2023/03/02 09:16:58;;;;;;;22.10;9.73;;;;;;;2.42;68.02;101589.94;5000891;28;20030;-67
2023/03/02 09:19:23;;;;;;;16.35;9.07;;;;;;;2.54;67.24;101579.31;4993870;28;20041;-66
2023/03/02 09:21:49;;;;;;;17.35;10.18;;;;;;;2.65;67.16;101578.00;4993314;28;20034;-67
2023/03/02 09:24:14;;;;;;;16.08;8.80;;;;;;;2.80;66.41;101560.69;4997909;28;20034;-66
2023/03/02 09:26:40;;;;;;;17.48;8.65;;;;;;;2.86;65.74;101546.47;4994192;28;20450;-67
2023/03/02 09:29:06;;;;;;;18.27;9.13;;;;;;;3.00;64.46;101534.16;4999767;28;20132;-65
2023/03/02 09:31:32;;;;;;;22.10;9.25;;;;;;;3.10;64.32;101520.91;4992935;28;20124;-66
2023/03/02 09:33:57;;;;;;;14.25;8.57;;;;;;;3.20;63.55;101507.59;5004286;28;20410;-65
2023/03/02 09:36:24;;;;;;;14.43;8.93;;;;;;;3.29;63.90;101530.06;4987660;28;20508;-66
2023/03/02 09:38:51;;;;;;;18.02;9.25;;;;;;;3.40;61.91;101490.38;4987704;28;20049;-66
2023/03/02 09:41:19;;;;;;;16.23;9.45;;;;;;;3.48;62.59;101507.69;4996377;28;20034;-66
2023/03/02 09:43:59;;;;;;;15.00;8.20;;;;;;;3.53;57.67;101415.81;5000188;28;20037;-66
2023/03/02 09:46:48;;;;;;;15.57;8.40;;;;;;;3.69;56.25;101414.59;4985519;28;20038;-66
2023/03/02 09:49:24;;;;;;;12.73;8.02;;;;;;;3.79;56.42;101430.25;4985853;28;20035;-66
2023/03/02 09:51:52;;;;;;;16.65;9.20;;;;;;;3.84;56.36;101444.03;4987261;28;20080;-67
2023/03/02 09:54:23;;;;;;;17.20;8.63;;;;;;;3.88;56.26;101445.88;4990649;28;20052;-66
2023/03/02 09:57:01;;;;;;;16.27;10.18;;;;;;;3.97;56.29;101440.16;4995392;28;20038;-67
2023/03/02 09:59:47;;;;;;;15.77;8.75;;;;;;;4.07;55.42;101437.03;4992123;28;20061;-66
2023/03/02 10:02:36;;;;;;;14.13;8.40;;;;;;;4.16;54.66;101419.38;4997071;28;20036;-67
2023/03/02 10:05:12;;;;;;;13.98;9.10;;;;;;;4.24;54.01;101415.31;4996230;28;20065;-68
2023/03/02 10:07:38;;;;;;;14.63;8.50;;;;;;;4.30;54.46;101427.44;4999230;28;20069;-67
2023/03/02 10:10:22;;;;;;;16.23;8.85;;;;;;;4.38;54.79;101443.88;4992226;28;20080;-67
2023/03/02 10:12:56;;;;;;;13.88;8.25;;;;;;;4.41;54.08;101443.97;4995739;28;20161;-67
2023/03/02 10:15:40;;;;;;;15.63;8.33;;;;;;;4.47;53.04;101439.88;4999214;28;20787;-67
2023/03/02 10:18:31;;;;;;;16.77;9.45;;;;;;;4.57;53.50;101443.53;4994973;28;20261;-67
2023/03/02 10:21:38;;;;;;;16.05;8.23;;;;;;;4.64;53.44;101442.88;4987247;28;20143;-67
2023/03/02 10:24:06;;;;;;;17.00;8.73;;;;;;;4.72;53.90;101443.94;5001358;28;20092;-67
2023/03/02 10:26:40;;;;;;;15.27;8.80;;;;;;;4.80;53.34;101449.25;4997080;28;20068;-67
2023/03/02 10:29:36;;;;;;;18.90;8.43;;;;;;;4.89;52.77;101437.56;5000005;28;20037;-67
2023/03/02 10:32:15;;;;;;;17.30;8.73;;;;;;;5.00;52.59;101428.44;4998789;28;20041;-66
2023/03/02 10:34:40;;;;;;;16.48;8.90;;;;;;;5.08;52.55;101420.94;4999484;28;20038;-67
2023/03/02 10:37:29;;;;;;;14.43;8.60;;;;;;;5.20;51.52;101413.53;4995914;28;20392;-67
2023/03/02 10:39:55;;;;;;;19.20;8.27;;;;;;;5.33;52.08;101422.38;4998039;28;20038;-65
2023/03/02 10:42:39;;;;;;;22.25;10.75;;;;;;;5.49;50.84;101409.94;5001336;28;20069;-66
2023/03/02 10:45:21;;;;;;;17.27;9.48;;;;;;;5.55;52.16;101419.47;4996218;28;20115;-67
2023/03/02 10:47:46;;;;;;;14.50;8.52;;;;;;;5.62;52.37;101421.34;4990494;28;20038;-66
2023/03/02 10:50:22;;;;;;;16.67;9.15;;;;;;;5.67;53.40;101445.38;4997179;28;20520;-67
2023/03/02 10:52:49;;;;;;;17.10;10.02;;;;;;;5.79;51.29;101409.75;4995490;28;20019;-67
2023/03/02 10:55:15;;;;;;;14.95;8.30;;;;;;;5.93;51.10;101399.78;5010586;28;20096;-66
2023/03/02 10:57:42;;;;;;;19.08;9.48;;;;;;;6.01;50.36;101398.22;5007892;28;20034;-67
2023/03/02 11:00:22;;;;;;;17.23;9.23;;;;;;;6.08;50.64;101397.53;5000519;28;20065;-67
2023/03/02 11:02:53;;;;;;;17.63;9.18;;;;;;;6.20;50.32;101400.34;4998380;28;20064;-66
2023/03/02 11:05:44;;;;;;;19.05;9.75;;;;;;;6.30;49.96;101402.22;4994450;28;20034;-67
2023/03/02 11:08:19;;;;;;;17.95;9.32;;;;;;;6.40;50.42;101393.00;5004794;28;20041;-68
2023/03/02 11:10:57;;;;;;;17.20;9.43;;;;;;;6.46;49.67;101390.53;5001186;28;20069;-68
2023/03/02 11:13:27;;;;;;;19.13;10.10;;;;;;;6.55;49.61;101389.00;4997815;28;20038;-68
2023/03/02 11:16:01;;;;;;;17.20;8.95;;;;;;;6.61;50.08;101391.69;5001241;28;20103;-67
2023/03/02 11:18:46;;;;;;;16.45;9.90;;;;;;;6.73;49.90;101391.03;4997731;28;20048;-67
2023/03/02 11:21:28;;;;;;;14.30;8.45;;;;;;;6.81;49.71;101382.59;4995573;28;20376;-66